Terminal Aerodrome Forecast
Issued by NWS

Home | Current Version | Previous Version | Text Only | Print | Product List | Glossary On
Versions: 1 2 3 4 5 6 7 8 9 10 11 12 13 14 15 16 17 18 19 20 21 22 23 24 25
000
FTUS43 KDVN 252200 AAC
TAFBRL
TAF AMD
KBRL 252242Z 2523/2618 02014G21KT P6SM SCT015 OVC035
     FM260000 01012KT P6SM BKN040
     FM260200 34004KT P6SM SCT250
     FM261500 18007KT P6SM SCT080 BKN180=

USA.gov is the U.S. government's official web portal to all federal, state and local government web resources and services.